createdAt,value
2022-12-04T00:00:40.443Z,29.87
2022-12-04T00:03:27.759Z,33.10
2022-12-04T00:06:18.164Z,28.38
2022-12-04T00:09:05.818Z,28.77
2022-12-04T00:11:52.978Z,32.30
2022-12-04T00:15:00.726Z,32.13
2022-12-04T00:17:30.372Z,33.42
2022-12-04T00:20:17.683Z,30.70
2022-12-04T00:23:04.667Z,31.57
2022-12-04T00:25:53.390Z,29.37
2022-12-04T00:28:41.122Z,29.25
2022-12-04T00:31:30.553Z,32.13
2022-12-04T00:34:18.553Z,28.35
2022-12-04T00:37:05.952Z,32.78
2022-12-04T00:39:53.772Z,30.10
2022-12-04T00:42:41.781Z,34.73
2022-12-04T00:45:29.020Z,33.15
2022-12-04T00:48:16.107Z,31.40
2022-12-04T00:51:09.499Z,33.48
2022-12-04T00:53:56.759Z,31.70
2022-12-04T00:56:44.110Z,30.20
2022-12-04T00:59:31.340Z,31.37
2022-12-04T01:02:18.823Z,30.10
2022-12-04T01:05:06.855Z,31.02
2022-12-04T01:07:55.321Z,32.85
2022-12-04T01:10:43.248Z,29.70
2022-12-04T01:13:30.655Z,30.62
2022-12-04T01:16:30.168Z,29.15
2022-12-04T01:19:17.745Z,29.50
2022-12-04T01:22:05.228Z,29.60
2022-12-04T01:24:54.076Z,32.48
2022-12-04T01:27:41.217Z,28.07
2022-12-04T01:30:28.810Z,29.82
2022-12-04T01:33:16.004Z,22.50
2022-12-04T01:36:05.680Z,29.92
2022-12-04T01:38:53.009Z,28.67
2022-12-04T01:41:40.465Z,31.37
2022-12-04T01:44:28.228Z,29.67
2022-12-04T01:47:15.795Z,27.95
2022-12-04T01:50:03.127Z,26.85
2022-12-04T01:52:50.306Z,29.00
2022-12-04T01:55:38.375Z,28.55
2022-12-04T01:58:28.885Z,32.50
2022-12-04T02:01:16.289Z,32.65
2022-12-04T02:04:05.732Z,27.37
2022-12-04T02:06:52.911Z,29.67
2022-12-04T02:09:41.715Z,25.37
2022-12-04T02:12:38.119Z,28.55
2022-12-04T02:15:37.044Z,28.47
2022-12-04T02:18:33.520Z,30.65
2022-12-04T02:21:36.066Z,29.05
2022-12-04T02:24:31.903Z,31.20
2022-12-04T02:27:42.094Z,28.57
2022-12-04T02:30:31.576Z,27.32
2022-12-04T02:33:22.179Z,27.50
2022-12-04T02:36:12.851Z,28.75
2022-12-04T02:39:15.007Z,27.90
2022-12-04T02:42:09.138Z,28.62
2022-12-04T02:44:59.185Z,28.42
2022-12-04T02:47:47.392Z,28.73
2022-12-04T02:50:37.990Z,27.42
2022-12-04T02:53:37.710Z,29.52
2022-12-04T02:56:33.804Z,27.98
2022-12-04T02:59:24.019Z,30.30
2022-12-04T03:02:14.335Z,29.63
2022-12-04T03:05:06.918Z,27.32
2022-12-04T03:08:15.276Z,28.27
2022-12-04T03:11:03.080Z,25.65
2022-12-04T03:13:53.575Z,29.32
2022-12-04T03:16:43.163Z,31.48
2022-12-04T03:19:39.518Z,28.80
2022-12-04T03:22:28.381Z,28.30
2022-12-04T03:25:16.015Z,26.45
2022-12-04T03:28:07.280Z,28.05
2022-12-04T03:30:57.518Z,27.05
2022-12-04T03:33:47.639Z,27.90
2022-12-04T03:36:40.995Z,29.60
2022-12-04T03:39:49.463Z,29.87
2022-12-04T03:42:42.693Z,30.50
2022-12-04T03:45:33.487Z,29.05
2022-12-04T03:48:23.818Z,27.58
2022-12-04T03:51:19.734Z,29.60
2022-12-04T03:54:13.373Z,30.35
2022-12-04T03:57:09.579Z,30.90
2022-12-04T04:00:10.008Z,30.40
2022-12-04T04:03:00.908Z,29.95
2022-12-04T04:05:51.203Z,27.22
2022-12-04T04:08:41.446Z,28.25
2022-12-04T04:11:53.533Z,30.15
2022-12-04T04:15:11.209Z,32.75
2022-12-04T04:18:17.404Z,29.63
2022-12-04T04:21:23.010Z,28.37
2022-12-04T04:24:16.184Z,27.45
2022-12-04T04:27:03.757Z,31.70
2022-12-04T04:29:53.047Z,31.12
2022-12-04T04:32:52.240Z,27.02
2022-12-04T04:35:45.411Z,26.07
2022-12-04T04:38:50.802Z,26.23
2022-12-04T04:41:41.307Z,30.70
2022-12-04T04:44:40.788Z,27.75
2022-12-04T04:47:52.288Z,29.10
2022-12-04T04:50:40.542Z,29.80
2022-12-04T04:53:30.987Z,28.07
2022-12-04T04:56:18.997Z,26.87
2022-12-04T04:59:06.333Z,27.65
2022-12-04T05:01:54.011Z,29.05
2022-12-04T05:04:41.623Z,25.68
2022-12-04T05:07:29.162Z,28.47
2022-12-04T05:10:16.489Z,29.23
2022-12-04T05:13:04.058Z,28.07
2022-12-04T05:16:05.767Z,29.67
2022-12-04T05:19:10.691Z,28.30
2022-12-04T05:21:58.300Z,26.82
2022-12-04T05:24:45.543Z,28.02
2022-12-04T05:27:33.817Z,26.05
2022-12-04T05:30:21.305Z,29.82
2022-12-04T05:33:10.152Z,30.27
2022-12-04T05:36:03.438Z,23.98
2022-12-04T05:38:50.895Z,24.23
2022-12-04T05:41:38.519Z,26.80
2022-12-04T05:44:26.048Z,26.35
2022-12-04T05:47:13.252Z,31.48
2022-12-04T05:50:00.533Z,27.37
2022-12-04T05:52:47.947Z,28.12
2022-12-04T05:55:35.546Z,25.92
2022-12-04T05:58:22.820Z,27.20
2022-12-04T06:01:15.705Z,26.97
2022-12-04T06:04:03.402Z,27.87
2022-12-04T06:06:50.634Z,26.57
2022-12-04T06:09:38.317Z,33.30
2022-12-04T06:12:25.840Z,26.20
2022-12-04T06:15:13.349Z,25.08
2022-12-04T06:18:00.764Z,26.07
2022-12-04T06:20:48.009Z,29.77
2022-12-04T06:23:35.701Z,25.37
2022-12-04T06:26:24.208Z,24.98
2022-12-04T06:29:13.140Z,25.27
2022-12-04T06:32:00.791Z,25.32
2022-12-04T06:34:49.662Z,27.20
2022-12-04T06:37:36.930Z,26.25
2022-12-04T06:40:24.197Z,30.32
2022-12-04T06:43:11.716Z,26.35
2022-12-04T06:46:10.999Z,25.77
2022-12-04T06:48:59.610Z,29.42
2022-12-04T06:51:46.803Z,28.00
2022-12-04T06:54:34.271Z,26.12
2022-12-04T06:57:21.766Z,26.62
2022-12-04T07:00:09.844Z,23.83
2022-12-04T07:02:57.283Z,27.50
2022-12-04T07:05:44.546Z,27.05
2022-12-04T07:08:31.743Z,25.92
2022-12-04T07:11:19.871Z,25.65
2022-12-04T07:14:07.842Z,28.00
2022-12-04T07:16:55.083Z,26.87
2022-12-04T07:19:42.245Z,23.42
2022-12-04T07:22:29.463Z,26.02
2022-12-04T07:25:17.240Z,25.17
2022-12-04T07:28:04.483Z,25.08
2022-12-04T07:30:51.755Z,26.90
2022-12-04T07:33:40.133Z,24.90
2022-12-04T07:36:28.482Z,23.05
2022-12-04T07:39:16.013Z,26.42
2022-12-04T07:42:03.428Z,25.43
2022-12-04T07:44:50.843Z,23.77
2022-12-04T07:47:38.262Z,22.10
2022-12-04T07:50:25.533Z,20.88
2022-12-04T07:53:12.948Z,22.55
2022-12-04T07:56:00.566Z,24.07
2022-12-04T07:58:48.263Z,22.25
2022-12-04T08:01:35.796Z,18.77
2022-12-04T08:04:23.419Z,21.42
2022-12-04T08:07:10.809Z,23.20
2022-12-04T08:09:58.327Z,23.30
2022-12-04T08:12:45.743Z,21.42
2022-12-04T08:15:34.818Z,20.27
2022-12-04T08:18:22.194Z,20.85
2022-12-04T08:21:15.471Z,20.80
2022-12-04T08:24:03.525Z,18.55
2022-12-04T08:26:50.654Z,20.82
2022-12-04T08:29:38.341Z,19.25
2022-12-04T08:32:25.822Z,24.80
2022-12-04T08:35:13.242Z,19.55
2022-12-04T08:38:00.420Z,19.75
2022-12-04T08:40:47.730Z,19.75
2022-12-04T08:43:35.613Z,25.45
2022-12-04T08:46:25.697Z,21.30
2022-12-04T08:49:13.239Z,22.67
2022-12-04T08:52:00.506Z,24.30
2022-12-04T08:54:48.028Z,24.90
2022-12-04T08:57:35.478Z,25.43
2022-12-04T09:00:24.864Z,23.35
2022-12-04T09:03:14.549Z,28.38
2022-12-04T09:06:04.383Z,25.40
2022-12-04T09:08:58.132Z,23.27
2022-12-04T09:11:47.081Z,22.40
2022-12-04T09:14:33.907Z,25.20
2022-12-04T09:17:20.987Z,23.87
2022-12-04T09:20:09.251Z,23.32
2022-12-04T09:23:05.040Z,25.57
2022-12-04T09:25:45.337Z,26.60
2022-12-04T09:28:33.176Z,27.73
2022-12-04T09:31:22.163Z,28.20
2022-12-04T09:34:09.461Z,25.52
2022-12-04T09:36:57.333Z,33.08
2022-12-04T09:39:44.455Z,24.40
2022-12-04T09:42:50.555Z,28.50
2022-12-04T09:45:50.061Z,27.62
2022-12-04T09:48:40.634Z,29.52
2022-12-04T09:51:28.989Z,27.02
2022-12-04T09:54:19.684Z,28.65
2022-12-04T09:57:13.134Z,27.13
2022-12-04T10:00:00.687Z,26.87
2022-12-04T10:02:51.358Z,28.20
2022-12-04T10:05:56.578Z,28.00
2022-12-04T10:08:46.984Z,26.45
2022-12-04T10:11:49.257Z,23.00
2022-12-04T10:14:51.514Z,26.00
2022-12-04T10:17:58.232Z,26.05
2022-12-04T10:21:06.981Z,26.20
2022-12-04T10:24:06.162Z,24.18
2022-12-04T10:26:56.877Z,27.98
2022-12-04T10:29:46.693Z,26.12
2022-12-04T10:32:35.155Z,29.12
2022-12-04T10:35:33.875Z,25.62
2022-12-04T10:38:36.313Z,26.57
2022-12-04T10:41:27.128Z,28.52
2022-12-04T10:44:16.666Z,29.23
2022-12-04T10:47:06.274Z,23.65
2022-12-04T10:50:05.645Z,29.07
2022-12-04T10:52:53.013Z,27.93
2022-12-04T10:55:40.539Z,24.90
2022-12-04T10:58:27.862Z,28.60
2022-12-04T11:01:16.217Z,27.10
2022-12-04T11:04:07.983Z,25.45
2022-12-04T11:07:04.338Z,22.30
2022-12-04T11:10:05.910Z,26.60
2022-12-04T11:12:57.801Z,23.85
2022-12-04T11:15:51.591Z,23.85
2022-12-04T11:18:50.676Z,21.23
2022-12-04T11:21:39.822Z,25.23
2022-12-04T11:24:33.354Z,23.65
2022-12-04T11:27:23.882Z,28.23
2022-12-04T11:30:14.143Z,25.65
2022-12-04T11:33:02.122Z,22.55
2022-12-04T11:35:55.401Z,21.40
2022-12-04T11:38:42.711Z,23.65
2022-12-04T11:41:32.329Z,19.48
2022-12-04T11:44:31.421Z,21.62
2022-12-04T11:47:20.839Z,22.87
2022-12-04T11:50:29.308Z,20.80
2022-12-04T11:53:19.946Z,18.27
2022-12-04T11:56:25.627Z,19.65
2022-12-04T11:59:33.839Z,25.45
2022-12-04T12:02:33.402Z,22.17
2022-12-04T12:05:35.889Z,21.27
2022-12-04T12:08:42.882Z,20.72
2022-12-04T12:11:42.638Z,20.65
2022-12-04T12:14:49.200Z,19.10
2022-12-04T12:17:48.648Z,20.82
2022-12-04T12:20:44.638Z,21.65
2022-12-04T12:23:49.763Z,24.10
2022-12-04T12:26:57.530Z,25.48
2022-12-04T12:30:09.335Z,24.75
2022-12-04T12:33:11.696Z,25.05
2022-12-04T12:36:11.171Z,27.22
2022-12-04T12:39:04.200Z,22.25
2022-12-04T12:42:00.504Z,26.48
2022-12-04T12:44:59.896Z,26.07
2022-12-04T12:47:50.113Z,21.05
2022-12-04T12:50:43.373Z,23.45
2022-12-04T12:53:33.808Z,23.62
2022-12-04T12:56:33.359Z,22.62
2022-12-04T12:59:27.576Z,23.22
2022-12-04T13:02:29.370Z,23.98
2022-12-04T13:05:19.861Z,23.25
2022-12-04T13:08:27.855Z,22.07
2022-12-04T13:11:20.793Z,19.73
2022-12-04T13:14:08.054Z,20.68
2022-12-04T13:16:58.741Z,21.62
2022-12-04T13:19:55.775Z,22.73
2022-12-04T13:23:10.900Z,21.60
2022-12-04T13:26:04.469Z,22.45
2022-12-04T13:29:08.276Z,22.00
2022-12-04T13:32:25.540Z,21.48
2022-12-04T13:35:20.319Z,26.80
2022-12-04T13:38:12.997Z,19.32
2022-12-04T13:41:03.099Z,23.38
2022-12-04T13:43:53.443Z,21.17
2022-12-04T13:46:46.870Z,22.37
2022-12-04T13:49:36.691Z,25.00
2022-12-04T13:52:26.667Z,25.77
2022-12-04T13:55:32.387Z,24.43
2022-12-04T13:58:22.718Z,25.48
2022-12-04T14:01:25.462Z,25.60
2022-12-04T14:04:30.828Z,29.60
2022-12-04T14:07:37.233Z,24.55
2022-12-04T14:10:30.796Z,28.40
2022-12-04T14:13:21.289Z,31.20
2022-12-04T14:16:11.671Z,32.33
2022-12-04T14:19:01.521Z,28.62
2022-12-04T14:21:48.911Z,28.83
2022-12-04T14:24:38.834Z,25.75
2022-12-04T14:27:41.624Z,28.32
2022-12-04T14:30:38.009Z,28.40
2022-12-04T14:33:27.515Z,28.57
2022-12-04T14:36:26.413Z,24.72
2022-12-04T14:39:44.083Z,28.10
2022-12-04T14:42:40.994Z,27.77
2022-12-04T14:45:57.352Z,30.92
2022-12-04T14:48:56.441Z,29.18
2022-12-04T14:52:03.630Z,26.80
2022-12-04T14:55:18.530Z,32.48
2022-12-04T14:58:34.048Z,32.70
2022-12-04T15:01:29.141Z,29.37
2022-12-04T15:04:28.304Z,31.95
2022-12-04T15:07:31.311Z,30.68
2022-12-04T15:10:42.536Z,29.85
2022-12-04T15:13:32.932Z,27.10
2022-12-04T15:16:23.902Z,28.02
2022-12-04T15:19:21.245Z,28.00
2022-12-04T15:22:20.605Z,31.57
2022-12-04T15:25:10.026Z,32.75
2022-12-04T15:28:06.051Z,34.85
2022-12-04T15:30:55.436Z,33.70
2022-12-04T15:33:44.852Z,33.08
2022-12-04T15:36:53.474Z,32.95
2022-12-04T15:39:41.566Z,34.23
2022-12-04T15:42:30.793Z,31.48
2022-12-04T15:45:24.778Z,31.30
2022-12-04T15:48:12.319Z,31.05
2022-12-04T15:51:02.865Z,29.00
2022-12-04T15:53:50.019Z,29.65
2022-12-04T15:56:37.429Z,33.42
2022-12-04T15:59:27.040Z,32.05
2022-12-04T16:02:32.647Z,30.08
2022-12-04T16:05:26.011Z,32.90
2022-12-04T16:08:25.145Z,32.78
2022-12-04T16:11:25.287Z,29.27
2022-12-04T16:14:20.268Z,29.77
2022-12-04T16:17:08.923Z,33.58
2022-12-04T16:19:57.840Z,33.10
2022-12-04T16:22:47.784Z,32.73
2022-12-04T16:25:54.660Z,33.48
2022-12-04T16:28:42.039Z,30.70
2022-12-04T16:31:29.476Z,31.65
2022-12-04T16:34:16.687Z,31.73
2022-12-04T16:37:05.738Z,32.95
2022-12-04T16:39:52.999Z,30.60
2022-12-04T16:42:41.238Z,33.73
2022-12-04T16:45:34.631Z,35.88
2022-12-04T16:48:22.193Z,36.03
2022-12-04T16:51:18.355Z,32.67
2022-12-04T16:54:05.834Z,41.35
2022-12-04T16:56:53.419Z,40.25
2022-12-04T16:59:40.957Z,36.25
2022-12-04T17:02:29.707Z,34.65
2022-12-04T17:05:23.179Z,33.35
2022-12-04T17:08:10.737Z,33.75
2022-12-04T17:10:58.782Z,38.45
2022-12-04T17:13:46.249Z,32.63
2022-12-04T17:16:37.226Z,36.98
2022-12-04T17:19:24.558Z,37.28
2022-12-04T17:22:13.725Z,35.75
2022-12-04T17:25:01.829Z,37.13
2022-12-04T17:27:49.758Z,40.60
2022-12-04T17:30:36.979Z,34.85
2022-12-04T17:33:25.044Z,37.88
2022-12-04T17:36:15.441Z,35.78
2022-12-04T17:39:03.059Z,36.25
2022-12-04T17:41:50.292Z,34.38
2022-12-04T17:44:37.562Z,33.92
2022-12-04T17:47:25.194Z,36.00
2022-12-04T17:50:12.366Z,36.20
2022-12-04T17:52:59.846Z,35.30
2022-12-04T17:55:47.328Z,33.83
2022-12-04T17:58:36.144Z,34.58
2022-12-04T18:01:28.549Z,34.92
2022-12-04T18:04:15.701Z,32.38
2022-12-04T18:07:02.755Z,32.78
2022-12-04T18:09:50.344Z,28.57
2022-12-04T18:12:37.823Z,31.77
2022-12-04T18:15:25.347Z,31.65
2022-12-04T18:18:12.690Z,30.52
2022-12-04T18:21:11.337Z,31.42
2022-12-04T18:24:00.595Z,29.30
2022-12-04T18:26:49.201Z,27.48
2022-12-04T18:29:36.925Z,28.38
2022-12-04T18:32:24.402Z,25.30
2022-12-04T18:35:11.927Z,25.15
2022-12-04T18:37:59.392Z,22.90
2022-12-04T18:40:46.740Z,26.10
2022-12-04T18:43:35.615Z,22.45
2022-12-04T18:46:23.252Z,24.18
2022-12-04T18:49:11.590Z,24.00
2022-12-04T18:52:00.318Z,26.40
2022-12-04T18:54:47.581Z,28.50
2022-12-04T18:57:35.626Z,32.85
2022-12-04T19:00:23.172Z,32.90
2022-12-04T19:03:11.162Z,28.45
2022-12-04T19:05:58.687Z,34.40
2022-12-04T19:08:46.035Z,32.93
2022-12-04T19:11:34.057Z,35.35
2022-12-04T19:14:23.716Z,35.30
2022-12-04T19:17:11.629Z,31.40
2022-12-04T19:19:59.935Z,38.58
2022-12-04T19:22:47.245Z,32.17
2022-12-04T19:25:35.181Z,29.20
2022-12-04T19:28:22.719Z,33.33
2022-12-04T19:31:18.940Z,33.50
2022-12-04T19:34:06.968Z,49.88
2022-12-04T19:36:55.497Z,37.53
2022-12-04T19:39:42.717Z,34.92
2022-12-04T19:42:31.623Z,34.83
2022-12-04T19:45:18.935Z,34.75
2022-12-04T19:48:06.498Z,33.10
2022-12-04T19:50:53.935Z,30.30
2022-12-04T19:53:41.481Z,32.85
2022-12-04T19:56:30.489Z,28.62
2022-12-04T19:59:19.648Z,31.80
2022-12-04T20:02:07.724Z,32.42
2022-12-04T20:04:54.905Z,34.73
2022-12-04T20:07:42.294Z,31.23
2022-12-04T20:10:29.837Z,35.30
2022-12-04T20:13:17.295Z,36.10
2022-12-04T20:16:06.817Z,39.18
2022-12-04T20:18:54.632Z,36.73
2022-12-04T20:21:42.110Z,33.13
2022-12-04T20:24:29.476Z,34.18
2022-12-04T20:27:16.793Z,40.17
2022-12-04T20:30:04.087Z,39.88
2022-12-04T20:32:51.341Z,40.12
2022-12-04T20:35:40.320Z,35.35
2022-12-04T20:38:27.505Z,37.75
2022-12-04T20:41:16.198Z,31.93
2022-12-04T20:44:05.903Z,35.88
2022-12-04T20:46:54.455Z,33.73
2022-12-04T20:49:41.789Z,32.93
2022-12-04T20:52:29.210Z,36.73
2022-12-04T20:55:16.527Z,34.00
2022-12-04T20:58:04.219Z,33.08
2022-12-04T21:00:51.486Z,36.83
2022-12-04T21:03:39.439Z,35.70
2022-12-04T21:06:34.945Z,35.83
2022-12-04T21:09:26.703Z,35.13
2022-12-04T21:12:31.937Z,36.93
2022-12-04T21:15:37.287Z,35.98
2022-12-04T21:18:24.816Z,35.35
2022-12-04T21:21:12.365Z,37.50
2022-12-04T21:24:01.437Z,35.08
2022-12-04T21:26:49.154Z,34.55
2022-12-04T21:29:37.908Z,38.48
2022-12-04T21:32:25.569Z,38.23
2022-12-04T21:35:12.758Z,36.53
2022-12-04T21:38:00.293Z,34.92
2022-12-04T21:40:49.592Z,34.98
2022-12-04T21:43:37.971Z,38.35
2022-12-04T21:46:25.173Z,37.90
2022-12-04T21:49:13.582Z,35.85
2022-12-04T21:52:01.043Z,36.10
2022-12-04T21:54:53.320Z,36.80
2022-12-04T21:57:41.005Z,34.60
2022-12-04T22:00:28.069Z,39.10
2022-12-04T22:03:16.011Z,37.83
2022-12-04T22:06:03.163Z,40.25
2022-12-04T22:08:50.382Z,39.60
2022-12-04T22:11:38.778Z,38.17
2022-12-04T22:14:26.192Z,37.38
2022-12-04T22:17:13.786Z,37.08
2022-12-04T22:20:01.162Z,34.48
2022-12-04T22:22:48.401Z,37.42
2022-12-04T22:25:38.233Z,33.90
2022-12-04T22:28:25.245Z,35.78
2022-12-04T22:31:15.815Z,34.05
2022-12-04T22:34:02.917Z,43.00
2022-12-04T22:36:50.482Z,34.92
2022-12-04T22:39:38.195Z,32.53
2022-12-04T22:42:25.419Z,36.75
2022-12-04T22:45:13.480Z,38.45
2022-12-04T22:48:00.798Z,32.93
2022-12-04T22:50:56.593Z,31.90
2022-12-04T22:53:46.781Z,31.27
2022-12-04T22:56:34.512Z,30.20
2022-12-04T22:59:21.867Z,32.00
2022-12-04T23:02:09.188Z,34.15
2022-12-04T23:04:56.539Z,30.45
2022-12-04T23:07:44.019Z,27.70
2022-12-04T23:10:31.370Z,30.15
2022-12-04T23:13:18.977Z,28.25
2022-12-04T23:16:09.663Z,29.70
2022-12-04T23:18:55.992Z,33.28
2022-12-04T23:21:44.025Z,28.92
2022-12-04T23:24:31.291Z,26.10
2022-12-04T23:27:18.855Z,30.62
2022-12-04T23:30:07.562Z,32.53
2022-12-04T23:32:55.083Z,29.15
2022-12-04T23:35:42.633Z,30.55
2022-12-04T23:38:31.338Z,26.55
2022-12-04T23:41:21.685Z,26.10
2022-12-04T23:44:09.221Z,24.37
2022-12-04T23:46:56.744Z,25.68
2022-12-04T23:49:43.913Z,26.40
2022-12-04T23:52:31.589Z,27.58
2022-12-04T23:55:19.031Z,25.82
2022-12-04T23:58:06.417Z,26.05
